Epic Capri — 9HA2845 — position and weather

sailwx.info

Track history (hours):
 
Tides and Currents Weather Stations Pressure Air Temp Water Temp Dewpoint Dewpoint Depression Visibility Wind Speed Wind Dir Waves Ship Positions

Epic Capri

Last reported at 2017-Oct-12 12:19 UTC. Time now 2017-Nov-22 07:27 UTC.
Position N 01°15' E 104°02'.
Warning: this ship's position is 40 days out of date.

Length 99 m; draft 5.5 m.

Type: Ship (hazmat cat B). MMSI: 256325000.

Date/timePositionNaut miles runAvg speedWind from/ knotsBaromVisibWave heightAir tempDewpointWater temp
2017-Oct-12 12:19N 01°15' E 104°02'511.8
2017-Oct-12 11:52N 01°13' E 103°56'512.3
2017-Oct-12 11:28N 01°11' E 103°52'612.6
2017-Oct-12 11:00N 01°09' E 103°47'611.8
2017-Oct-12 10:28N 01°04' E 103°42'9 8.8
2017-Oct-12 09:28N 01°06' E 103°33'4 7.5
2017-Oct-12 08:58N 01°10' E 103°34'4 8.0
2017-Oct-12 08:29N 01°11' E 103°37'2 4.6
2017-Oct-12 08:00N 01°13' E 103°39'1 1.5
2017-Oct-12 07:24N 01°14' E 103°38'0 0.1
2017-Oct-12 06:57N 01°14' E 103°38'0 0.0
2017-Oct-12 06:30N 01°14' E 103°38'0 0.0
2017-Oct-12 06:00N 01°14' E 103°38'0 0.0
2017-Oct-12 05:30N 01°14' E 103°38'0 0.0
2017-Oct-12 05:00N 01°14' E 103°38'0 0.0
2017-Oct-12 04:30N 01°14' E 103°38'0 0.1
2017-Oct-12 04:01N 01°14' E 103°38'0 0.1
2017-Oct-12 03:30N 01°14' E 103°38'0 0.0
2017-Oct-12 02:59N 01°14' E 103°38'0 0.1
2017-Oct-12 02:30N 01°14' E 103°38'0 0.1
2017-Oct-12 02:01N 01°14' E 103°38'0 0.0
2017-Oct-12 01:30N 01°14' E 103°38'0 0.0
2017-Oct-12 00:58N 01°14' E 103°38'0 0.1
2017-Oct-12 00:30N 01°14' E 103°38'0 0.1
2017-Oct-11 23:59N 01°14' E 103°38'0 0.0
2017-Oct-11 23:30N 01°14' E 103°38'0 0.2
2017-Oct-11 23:00N 01°14' E 103°38'1 2.4
2017-Oct-11 22:31N 01°13' E 103°39'3 5.8
2017-Oct-11 22:01N 01°12' E 103°36'3 6.4
2017-Oct-11 21:28N 01°11' E 103°33'3 7.5
2017-Oct-11 21:00N 01°10' E 103°30'  
Track history (hours):
 
Tides and Currents Weather Stations Pressure Air Temp Water Temp Dewpoint Dewpoint Depression Visibility Wind Speed Wind Dir Waves Ship Positions

Epic Capri

Last reported at 2017-Oct-12 12:19 UTC. Time now 2017-Nov-22 07:27 UTC.
Position N 01°15' E 104°02'.
Warning: this ship's position is 40 days out of date.

Length 99 m; draft 5.5 m.

Type: Ship (hazmat cat B). MMSI: 256325000.

Date/timePositionNaut miles runAvg speedWind from/ knotsBaromVisibWave heightAir tempDewpointWater temp
2017-Oct-12 12:19N 01°15' E 104°02'511.8
2017-Oct-12 11:52N 01°13' E 103°56'512.3
2017-Oct-12 11:28N 01°11' E 103°52'612.6
2017-Oct-12 11:00N 01°09' E 103°47'611.8
2017-Oct-12 10:28N 01°04' E 103°42'9 8.8
2017-Oct-12 09:28N 01°06' E 103°33'4 7.5
2017-Oct-12 08:58N 01°10' E 103°34'4 8.0
2017-Oct-12 08:29N 01°11' E 103°37'2 4.6
2017-Oct-12 08:00N 01°13' E 103°39'1 1.5
2017-Oct-12 07:24N 01°14' E 103°38'0 0.1
2017-Oct-12 06:57N 01°14' E 103°38'0 0.0
2017-Oct-12 06:30N 01°14' E 103°38'0 0.0
2017-Oct-12 06:00N 01°14' E 103°38'0 0.0
2017-Oct-12 05:30N 01°14' E 103°38'0 0.0
2017-Oct-12 05:00N 01°14' E 103°38'0 0.0
2017-Oct-12 04:30N 01°14' E 103°38'0 0.1
2017-Oct-12 04:01N 01°14' E 103°38'0 0.1
2017-Oct-12 03:30N 01°14' E 103°38'0 0.0
2017-Oct-12 02:59N 01°14' E 103°38'0 0.1
2017-Oct-12 02:30N 01°14' E 103°38'0 0.1
2017-Oct-12 02:01N 01°14' E 103°38'0 0.0
2017-Oct-12 01:30N 01°14' E 103°38'0 0.0
2017-Oct-12 00:58N 01°14' E 103°38'0 0.1
2017-Oct-12 00:30N 01°14' E 103°38'0 0.1
2017-Oct-11 23:59N 01°14' E 103°38'0 0.0
2017-Oct-11 23:30N 01°14' E 103°38'0 0.2
2017-Oct-11 23:00N 01°14' E 103°38'1 2.4
2017-Oct-11 22:31N 01°13' E 103°39'3 5.8
2017-Oct-11 22:01N 01°12' E 103°36'3 6.4
2017-Oct-11 21:28N 01°11' E 103°33'3 7.5
2017-Oct-11 21:00N 01°10' E 103°30'  

Dump ship's entire track history